sensor_id;sensor_type;location;lat;lon;timestamp;temperature;humidity
56240;DHT22;42154;51.992;5.896;2022-12-20T00:01:19;10.00;99.90
56240;DHT22;42154;51.992;5.896;2022-12-20T00:03:47;10.00;99.90
56240;DHT22;42154;51.992;5.896;2022-12-20T00:06:13;10.00;99.90
56240;DHT22;42154;51.992;5.896;2022-12-20T00:08:39;10.00;99.90
56240;DHT22;42154;51.992;5.896;2022-12-20T00:11:06;10.00;99.90
56240;DHT22;42154;51.992;5.896;2022-12-20T00:13:33;10.00;99.90
56240;DHT22;42154;51.992;5.896;2022-12-20T00:16:10;10.00;99.90
56240;DHT22;42154;51.992;5.896;2022-12-20T00:18:37;10.10;99.90
56240;DHT22;42154;51.992;5.896;2022-12-20T00:21:04;10.00;99.90
56240;DHT22;42154;51.992;5.896;2022-12-20T00:23:30;10.10;99.90
56240;DHT22;42154;51.992;5.896;2022-12-20T00:26:10;10.10;99.90
56240;DHT22;42154;51.992;5.896;2022-12-20T00:28:37;10.10;99.90
56240;DHT22;42154;51.992;5.896;2022-12-20T00:31:03;10.10;99.90
56240;DHT22;42154;51.992;5.896;2022-12-20T00:33:33;10.10;99.90
56240;DHT22;42154;51.992;5.896;2022-12-20T00:36:00;10.20;99.90
56240;DHT22;42154;51.992;5.896;2022-12-20T00:38:26;10.20;99.90
56240;DHT22;42154;51.992;5.896;2022-12-20T00:41:03;10.30;99.90
56240;DHT22;42154;51.992;5.896;2022-12-20T00:43:30;10.40;99.90
56240;DHT22;42154;51.992;5.896;2022-12-20T00:45:56;10.50;99.90
56240;DHT22;42154;51.992;5.896;2022-12-20T00:48:22;10.50;99.90
56240;DHT22;42154;51.992;5.896;2022-12-20T00:50:48;10.60;99.90
56240;DHT22;42154;51.992;5.896;2022-12-20T00:53:14;10.60;99.90
56240;DHT22;42154;51.992;5.896;2022-12-20T00:55:49;10.70;99.90
56240;DHT22;42154;51.992;5.896;2022-12-20T00:58:14;10.70;99.90
56240;DHT22;42154;51.992;5.896;2022-12-20T01:00:40;10.70;99.90
56240;DHT22;42154;51.992;5.896;2022-12-20T01:03:07;10.80;99.90
56240;DHT22;42154;51.992;5.896;2022-12-20T01:05:33;10.80;99.90
56240;DHT22;42154;51.992;5.896;2022-12-20T01:07:59;10.80;99.90
56240;DHT22;42154;51.992;5.896;2022-12-20T01:10:25;10.90;99.90
56240;DHT22;42154;51.992;5.896;2022-12-20T01:12:50;10.90;99.90
56240;DHT22;42154;51.992;5.896;2022-12-20T01:15:16;11.00;99.90
56240;DHT22;42154;51.992;5.896;2022-12-20T01:17:42;10.90;99.90
56240;DHT22;42154;51.992;5.896;2022-12-20T01:20:08;10.90;99.90
56240;DHT22;42154;51.992;5.896;2022-12-20T01:22:34;11.00;99.90
56240;DHT22;42154;51.992;5.896;2022-12-20T01:25:00;10.90;99.90
56240;DHT22;42154;51.992;5.896;2022-12-20T01:27:28;11.00;99.90
56240;DHT22;42154;51.992;5.896;2022-12-20T01:29:54;11.00;99.90
56240;DHT22;42154;51.992;5.896;2022-12-20T01:32:20;11.00;99.90
56240;DHT22;42154;51.992;5.896;2022-12-20T01:34:46;11.00;99.90
56240;DHT22;42154;51.992;5.896;2022-12-20T01:37:12;11.10;99.90
56240;DHT22;42154;51.992;5.896;2022-12-20T01:39:37;11.10;99.90
56240;DHT22;42154;51.992;5.896;2022-12-20T01:42:04;11.10;99.90
56240;DHT22;42154;51.992;5.896;2022-12-20T01:46:55;11.10;99.90
56240;DHT22;42154;51.992;5.896;2022-12-20T01:49:22;11.00;99.90
56240;DHT22;42154;51.992;5.896;2022-12-20T01:52:08;11.00;99.90
56240;DHT22;42154;51.992;5.896;2022-12-20T01:54:45;11.10;99.90
56240;DHT22;42154;51.992;5.896;2022-12-20T01:57:24;11.10;99.90
56240;DHT22;42154;51.992;5.896;2022-12-20T01:59:53;11.00;99.90
56240;DHT22;42154;51.992;5.896;2022-12-20T02:02:19;11.00;99.90
56240;DHT22;42154;51.992;5.896;2022-12-20T02:04:45;10.90;99.90
56240;DHT22;42154;51.992;5.896;2022-12-20T02:07:17;10.90;99.90
56240;DHT22;42154;51.992;5.896;2022-12-20T02:09:45;10.90;99.90
56240;DHT22;42154;51.992;5.896;2022-12-20T02:12:14;10.90;99.90
56240;DHT22;42154;51.992;5.896;2022-12-20T02:34:20;10.70;99.90
56240;DHT22;42154;51.992;5.896;2022-12-20T02:36:50;10.70;99.90
56240;DHT22;42154;51.992;5.896;2022-12-20T02:39:16;10.70;99.90
56240;DHT22;42154;51.992;5.896;2022-12-20T02:41:46;10.70;99.90
56240;DHT22;42154;51.992;5.896;2022-12-20T02:44:17;10.70;99.90
56240;DHT22;42154;51.992;5.896;2022-12-20T02:47:06;10.60;99.90
56240;DHT22;42154;51.992;5.896;2022-12-20T02:49:35;10.60;99.90
56240;DHT22;42154;51.992;5.896;2022-12-20T02:52:08;10.70;99.90
56240;DHT22;42154;51.992;5.896;2022-12-20T02:54:35;10.60;99.90
56240;DHT22;42154;51.992;5.896;2022-12-20T02:57:22;10.70;99.90
56240;DHT22;42154;51.992;5.896;2022-12-20T02:59:59;10.70;99.90
56240;DHT22;42154;51.992;5.896;2022-12-20T03:02:28;10.70;99.90
56240;DHT22;42154;51.992;5.896;2022-12-20T03:05:15;10.60;99.90
56240;DHT22;42154;51.992;5.896;2022-12-20T03:07:40;10.60;99.90
56240;DHT22;42154;51.992;5.896;2022-12-20T03:10:06;10.70;99.90
56240;DHT22;42154;51.992;5.896;2022-12-20T03:12:32;10.60;99.90
56240;DHT22;42154;51.992;5.896;2022-12-20T03:14:58;10.60;99.90
56240;DHT22;42154;51.992;5.896;2022-12-20T03:17:24;10.60;99.90
56240;DHT22;42154;51.992;5.896;2022-12-20T03:19:49;10.60;99.90
56240;DHT22;42154;51.992;5.896;2022-12-20T03:22:15;10.60;99.90
56240;DHT22;42154;51.992;5.896;2022-12-20T03:24:41;10.60;99.90
56240;DHT22;42154;51.992;5.896;2022-12-20T03:27:10;10.60;99.90
56240;DHT22;42154;51.992;5.896;2022-12-20T03:29:37;10.60;99.90
56240;DHT22;42154;51.992;5.896;2022-12-20T03:32:03;10.60;99.90
56240;DHT22;42154;51.992;5.896;2022-12-20T03:34:29;10.60;99.90
56240;DHT22;42154;51.992;5.896;2022-12-20T03:36:54;10.50;99.90
56240;DHT22;42154;51.992;5.896;2022-12-20T03:39:20;10.50;99.90
56240;DHT22;42154;51.992;5.896;2022-12-20T03:41:49;10.50;99.90
56240;DHT22;42154;51.992;5.896;2022-12-20T03:44:17;10.50;99.90
56240;DHT22;42154;51.992;5.896;2022-12-20T03:46:43;10.50;99.90
56240;DHT22;42154;51.992;5.896;2022-12-20T03:49:08;10.50;99.90
56240;DHT22;42154;51.992;5.896;2022-12-20T03:51:42;10.50;99.90
56240;DHT22;42154;51.992;5.896;2022-12-20T03:54:08;10.50;99.90
56240;DHT22;42154;51.992;5.896;2022-12-20T03:56:53;10.60;99.90
56240;DHT22;42154;51.992;5.896;2022-12-20T03:59:20;10.50;99.90
56240;DHT22;42154;51.992;5.896;2022-12-20T04:01:46;10.60;99.90
56240;DHT22;42154;51.992;5.896;2022-12-20T04:04:12;10.60;99.90
56240;DHT22;42154;51.992;5.896;2022-12-20T04:06:39;10.60;99.90
56240;DHT22;42154;51.992;5.896;2022-12-20T04:09:05;10.60;99.90
56240;DHT22;42154;51.992;5.896;2022-12-20T04:11:38;10.60;99.90
56240;DHT22;42154;51.992;5.896;2022-12-20T04:14:08;10.70;99.90
56240;DHT22;42154;51.992;5.896;2022-12-20T04:16:34;10.70;99.90
56240;DHT22;42154;51.992;5.896;2022-12-20T04:19:01;10.70;99.90
56240;DHT22;42154;51.992;5.896;2022-12-20T04:21:33;10.80;99.90
56240;DHT22;42154;51.992;5.896;2022-12-20T04:24:01;10.80;99.90
56240;DHT22;42154;51.992;5.896;2022-12-20T04:26:45;10.90;99.90
56240;DHT22;42154;51.992;5.896;2022-12-20T04:29:12;10.80;99.90
56240;DHT22;42154;51.992;5.896;2022-12-20T04:31:39;10.90;99.90
56240;DHT22;42154;51.992;5.896;2022-12-20T04:34:06;10.90;99.90
56240;DHT22;42154;51.992;5.896;2022-12-20T04:36:33;10.90;99.90
56240;DHT22;42154;51.992;5.896;2022-12-20T04:39:02;10.90;99.90
56240;DHT22;42154;51.992;5.896;2022-12-20T04:41:37;10.90;99.90
56240;DHT22;42154;51.992;5.896;2022-12-20T04:44:08;10.90;99.90
56240;DHT22;42154;51.992;5.896;2022-12-20T04:46:36;11.00;99.90
56240;DHT22;42154;51.992;5.896;2022-12-20T04:49:05;11.10;99.90
56240;DHT22;42154;51.992;5.896;2022-12-20T04:51:33;11.00;99.90
56240;DHT22;42154;51.992;5.896;2022-12-20T04:53:59;11.00;99.90
56240;DHT22;42154;51.992;5.896;2022-12-20T04:56:34;11.00;99.90
56240;DHT22;42154;51.992;5.896;2022-12-20T04:59:07;11.00;99.90
56240;DHT22;42154;51.992;5.896;2022-12-20T05:01:33;11.10;99.90
56240;DHT22;42154;51.992;5.896;2022-12-20T05:04:00;11.00;99.90
56240;DHT22;42154;51.992;5.896;2022-12-20T05:06:30;11.10;99.90
56240;DHT22;42154;51.992;5.896;2022-12-20T05:08:56;11.20;99.90
56240;DHT22;42154;51.992;5.896;2022-12-20T05:11:23;11.20;99.90
56240;DHT22;42154;51.992;5.896;2022-12-20T05:13:49;11.20;99.90
56240;DHT22;42154;51.992;5.896;2022-12-20T05:16:17;11.20;99.90
56240;DHT22;42154;51.992;5.896;2022-12-20T05:18:44;11.20;99.90
56240;DHT22;42154;51.992;5.896;2022-12-20T05:21:10;11.20;99.90
56240;DHT22;42154;51.992;5.896;2022-12-20T05:23:54;11.30;99.90
56240;DHT22;42154;51.992;5.896;2022-12-20T05:26:51;11.20;99.90
56240;DHT22;42154;51.992;5.896;2022-12-20T05:29:18;11.10;99.90
56240;DHT22;42154;51.992;5.896;2022-12-20T05:31:44;11.20;99.90
56240;DHT22;42154;51.992;5.896;2022-12-20T05:34:09;11.20;99.90
56240;DHT22;42154;51.992;5.896;2022-12-20T05:36:37;11.20;99.90
56240;DHT22;42154;51.992;5.896;2022-12-20T05:39:04;11.20;99.90
56240;DHT22;42154;51.992;5.896;2022-12-20T05:41:33;11.20;99.90
56240;DHT22;42154;51.992;5.896;2022-12-20T05:44:00;11.20;99.90
56240;DHT22;42154;51.992;5.896;2022-12-20T05:46:27;11.20;99.90
56240;DHT22;42154;51.992;5.896;2022-12-20T05:48:58;11.20;99.90
56240;DHT22;42154;51.992;5.896;2022-12-20T05:51:24;11.20;99.90
56240;DHT22;42154;51.992;5.896;2022-12-20T05:54:01;11.10;99.90
56240;DHT22;42154;51.992;5.896;2022-12-20T05:56:41;11.10;99.90
56240;DHT22;42154;51.992;5.896;2022-12-20T05:59:07;11.20;99.90
56240;DHT22;42154;51.992;5.896;2022-12-20T06:01:34;11.10;99.90
56240;DHT22;42154;51.992;5.896;2022-12-20T06:04:01;11.10;99.90
56240;DHT22;42154;51.992;5.896;2022-12-20T06:06:27;11.10;99.90
56240;DHT22;42154;51.992;5.896;2022-12-20T06:08:53;11.10;99.90
56240;DHT22;42154;51.992;5.896;2022-12-20T06:11:31;11.20;99.90
56240;DHT22;42154;51.992;5.896;2022-12-20T06:14:02;11.20;99.90
56240;DHT22;42154;51.992;5.896;2022-12-20T06:16:29;11.20;99.90
56240;DHT22;42154;51.992;5.896;2022-12-20T06:18:56;11.20;99.90
56240;DHT22;42154;51.992;5.896;2022-12-20T06:21:22;11.20;99.90
56240;DHT22;42154;51.992;5.896;2022-12-20T06:23:50;11.10;99.90
56240;DHT22;42154;51.992;5.896;2022-12-20T06:26:16;11.10;99.90
56240;DHT22;42154;51.992;5.896;2022-12-20T06:28:48;11.10;99.90
56240;DHT22;42154;51.992;5.896;2022-12-20T06:31:21;11.10;99.90
56240;DHT22;42154;51.992;5.896;2022-12-20T06:33:50;11.10;99.90
56240;DHT22;42154;51.992;5.896;2022-12-20T06:36:18;11.10;99.90
56240;DHT22;42154;51.992;5.896;2022-12-20T06:38:44;11.10;99.90
56240;DHT22;42154;51.992;5.896;2022-12-20T06:41:10;11.10;99.90
56240;DHT22;42154;51.992;5.896;2022-12-20T06:43:36;11.10;99.90
56240;DHT22;42154;51.992;5.896;2022-12-20T06:46:02;11.10;99.90
56240;DHT22;42154;51.992;5.896;2022-12-20T06:48:28;11.10;99.90
56240;DHT22;42154;51.992;5.896;2022-12-20T06:50:54;11.10;99.90
56240;DHT22;42154;51.992;5.896;2022-12-20T06:53:20;11.20;99.90
56240;DHT22;42154;51.992;5.896;2022-12-20T06:55:46;11.20;99.90
56240;DHT22;42154;51.992;5.896;2022-12-20T06:58:16;11.20;99.90
56240;DHT22;42154;51.992;5.896;2022-12-20T07:00:44;11.20;99.90
56240;DHT22;42154;51.992;5.896;2022-12-20T07:03:10;11.20;99.90
56240;DHT22;42154;51.992;5.896;2022-12-20T07:05:35;11.30;99.90
56240;DHT22;42154;51.992;5.896;2022-12-20T07:08:01;11.30;99.90
56240;DHT22;42154;51.992;5.896;2022-12-20T07:10:32;11.30;99.90
56240;DHT22;42154;51.992;5.896;2022-12-20T07:12:58;11.30;99.90
56240;DHT22;42154;51.992;5.896;2022-12-20T07:15:24;11.30;99.90
56240;DHT22;42154;51.992;5.896;2022-12-20T07:17:50;11.30;99.90
56240;DHT22;42154;51.992;5.896;2022-12-20T07:20:16;11.30;99.90
56240;DHT22;42154;51.992;5.896;2022-12-20T07:22:42;11.30;99.90
56240;DHT22;42154;51.992;5.896;2022-12-20T07:25:08;11.30;99.90
56240;DHT22;42154;51.992;5.896;2022-12-20T07:27:34;11.30;99.90
56240;DHT22;42154;51.992;5.896;2022-12-20T07:30:00;11.30;99.90
56240;DHT22;42154;51.992;5.896;2022-12-20T07:32:26;11.30;99.90
56240;DHT22;42154;51.992;5.896;2022-12-20T07:34:51;11.30;99.90
56240;DHT22;42154;51.992;5.896;2022-12-20T07:37:18;11.30;99.90
56240;DHT22;42154;51.992;5.896;2022-12-20T07:39:43;11.30;99.90
56240;DHT22;42154;51.992;5.896;2022-12-20T07:42:10;11.30;99.90
56240;DHT22;42154;51.992;5.896;2022-12-20T07:44:41;11.30;99.90
56240;DHT22;42154;51.992;5.896;2022-12-20T07:47:07;11.30;99.90
56240;DHT22;42154;51.992;5.896;2022-12-20T07:49:34;11.30;99.90
56240;DHT22;42154;51.992;5.896;2022-12-20T07:52:01;11.40;99.90
56240;DHT22;42154;51.992;5.896;2022-12-20T07:54:37;11.40;99.90
56240;DHT22;42154;51.992;5.896;2022-12-20T07:57:10;11.40;99.90
56240;DHT22;42154;51.992;5.896;2022-12-20T07:59:41;11.40;99.90
56240;DHT22;42154;51.992;5.896;2022-12-20T08:02:11;11.40;99.90
56240;DHT22;42154;51.992;5.896;2022-12-20T08:04:38;11.40;99.90
56240;DHT22;42154;51.992;5.896;2022-12-20T08:07:06;11.40;99.90
56240;DHT22;42154;51.992;5.896;2022-12-20T08:09:37;11.40;99.90
56240;DHT22;42154;51.992;5.896;2022-12-20T08:12:06;11.40;99.90
56240;DHT22;42154;51.992;5.896;2022-12-20T08:14:32;11.40;99.90
56240;DHT22;42154;51.992;5.896;2022-12-20T08:16:57;11.50;99.90
56240;DHT22;42154;51.992;5.896;2022-12-20T08:19:23;11.40;99.90
56240;DHT22;42154;51.992;5.896;2022-12-20T08:21:49;11.40;99.90
56240;DHT22;42154;51.992;5.896;2022-12-20T08:24:14;11.40;99.90
56240;DHT22;42154;51.992;5.896;2022-12-20T08:26:41;11.40;99.90
56240;DHT22;42154;51.992;5.896;2022-12-20T08:29:07;11.40;99.90
56240;DHT22;42154;51.992;5.896;2022-12-20T08:31:39;11.50;99.90
56240;DHT22;42154;51.992;5.896;2022-12-20T08:34:06;11.50;99.90
56240;DHT22;42154;51.992;5.896;2022-12-20T08:36:32;11.40;99.90
56240;DHT22;42154;51.992;5.896;2022-12-20T08:39:04;11.40;99.90
56240;DHT22;42154;51.992;5.896;2022-12-20T08:41:30;11.50;99.90
56240;DHT22;42154;51.992;5.896;2022-12-20T08:43:56;11.50;99.90
56240;DHT22;42154;51.992;5.896;2022-12-20T08:46:22;11.40;99.90
56240;DHT22;42154;51.992;5.896;2022-12-20T08:48:48;11.30;99.90
56240;DHT22;42154;51.992;5.896;2022-12-20T08:51:13;11.40;99.90
56240;DHT22;42154;51.992;5.896;2022-12-20T08:53:39;11.40;99.90
56240;DHT22;42154;51.992;5.896;2022-12-20T08:56:11;11.40;99.90
56240;DHT22;42154;51.992;5.896;2022-12-20T08:58:38;11.50;99.90
56240;DHT22;42154;51.992;5.896;2022-12-20T09:01:06;11.50;99.90
56240;DHT22;42154;51.992;5.896;2022-12-20T09:03:34;11.50;99.90
56240;DHT22;42154;51.992;5.896;2022-12-20T09:06:01;11.60;99.90
56240;DHT22;42154;51.992;5.896;2022-12-20T09:08:29;11.60;99.90
56240;DHT22;42154;51.992;5.896;2022-12-20T09:11:02;11.50;99.90
56240;DHT22;42154;51.992;5.896;2022-12-20T09:13:28;11.60;99.90
56240;DHT22;42154;51.992;5.896;2022-12-20T09:15:54;11.40;99.90
56240;DHT22;42154;51.992;5.896;2022-12-20T09:18:20;11.50;99.90
56240;DHT22;42154;51.992;5.896;2022-12-20T09:20:46;11.50;99.90
56240;DHT22;42154;51.992;5.896;2022-12-20T09:23:11;11.40;99.90
56240;DHT22;42154;51.992;5.896;2022-12-20T09:25:37;11.40;99.90
56240;DHT22;42154;51.992;5.896;2022-12-20T09:28:03;11.40;99.90
56240;DHT22;42154;51.992;5.896;2022-12-20T09:30:29;11.40;99.90
56240;DHT22;42154;51.992;5.896;2022-12-20T09:32:55;11.30;99.90
56240;DHT22;42154;51.992;5.896;2022-12-20T09:35:21;11.30;99.90
56240;DHT22;42154;51.992;5.896;2022-12-20T09:37:47;11.30;99.90
56240;DHT22;42154;51.992;5.896;2022-12-20T09:40:19;11.30;99.90
56240;DHT22;42154;51.992;5.896;2022-12-20T09:42:46;11.30;99.90
56240;DHT22;42154;51.992;5.896;2022-12-20T09:45:28;11.30;99.90
56240;DHT22;42154;51.992;5.896;2022-12-20T09:47:54;11.30;99.90
56240;DHT22;42154;51.992;5.896;2022-12-20T09:50:48;11.30;99.90
56240;DHT22;42154;51.992;5.896;2022-12-20T09:55:53;11.30;99.90
56240;DHT22;42154;51.992;5.896;2022-12-20T10:01:16;11.40;99.90
56240;DHT22;42154;51.992;5.896;2022-12-20T10:03:42;11.40;99.90
56240;DHT22;42154;51.992;5.896;2022-12-20T10:09:50;11.40;99.90
56240;DHT22;42154;51.992;5.896;2022-12-20T10:17:25;11.30;99.90
56240;DHT22;42154;51.992;5.896;2022-12-20T10:22:55;11.30;99.90
56240;DHT22;42154;51.992;5.896;2022-12-20T10:25:30;11.30;99.90
56240;DHT22;42154;51.992;5.896;2022-12-20T10:27:57;11.30;99.90
56240;DHT22;42154;51.992;5.896;2022-12-20T10:30:26;11.30;99.90
56240;DHT22;42154;51.992;5.896;2022-12-20T10:32:55;11.40;99.90
56240;DHT22;42154;51.992;5.896;2022-12-20T10:35:36;11.30;99.90
56240;DHT22;42154;51.992;5.896;2022-12-20T10:38:07;11.30;99.90
56240;DHT22;42154;51.992;5.896;2022-12-20T10:40:59;11.30;99.90
56240;DHT22;42154;51.992;5.896;2022-12-20T10:43:27;11.30;99.90
56240;DHT22;42154;51.992;5.896;2022-12-20T10:46:06;11.30;99.90
56240;DHT22;42154;51.992;5.896;2022-12-20T10:48:37;11.30;99.90
56240;DHT22;42154;51.992;5.896;2022-12-20T10:56:25;11.30;99.90
56240;DHT22;42154;51.992;5.896;2022-12-20T10:59:04;11.30;99.90
56240;DHT22;42154;51.992;5.896;2022-12-20T11:01:48;11.30;99.90
56240;DHT22;42154;51.992;5.896;2022-12-20T11:06:56;11.30;99.90
56240;DHT22;42154;51.992;5.896;2022-12-20T11:09:33;11.30;99.90
56240;DHT22;42154;51.992;5.896;2022-12-20T11:14:26;11.30;99.90
56240;DHT22;42154;51.992;5.896;2022-12-20T11:16:53;11.30;99.90
56240;DHT22;42154;51.992;5.896;2022-12-20T11:19:45;11.40;99.90
56240;DHT22;42154;51.992;5.896;2022-12-20T11:25:53;11.40;99.90
56240;DHT22;42154;51.992;5.896;2022-12-20T11:37:19;11.40;99.90
56240;DHT22;42154;51.992;5.896;2022-12-20T11:48:23;11.50;99.90
56240;DHT22;42154;51.992;5.896;2022-12-20T11:54:02;11.50;99.90
56240;DHT22;42154;51.992;5.896;2022-12-20T11:56:35;11.50;99.90
56240;DHT22;42154;51.992;5.896;2022-12-20T12:02:09;11.50;99.90
56240;DHT22;42154;51.992;5.896;2022-12-20T12:04:44;11.50;99.90
56240;DHT22;42154;51.992;5.896;2022-12-20T12:07:32;11.50;99.90
56240;DHT22;42154;51.992;5.896;2022-12-20T12:10:02;11.50;99.90
56240;DHT22;42154;51.992;5.896;2022-12-20T12:12:32;11.50;99.90
56240;DHT22;42154;51.992;5.896;2022-12-20T12:15:15;11.50;99.90
56240;DHT22;42154;51.992;5.896;2022-12-20T12:17:59;11.50;99.90
56240;DHT22;42154;51.992;5.896;2022-12-20T12:23:51;11.50;99.90
56240;DHT22;42154;51.992;5.896;2022-12-20T12:26:23;11.60;99.90
56240;DHT22;42154;51.992;5.896;2022-12-20T12:28:57;11.50;99.90
56240;DHT22;42154;51.992;5.896;2022-12-20T12:37:36;11.50;99.90
56240;DHT22;42154;51.992;5.896;2022-12-20T12:40:22;11.60;99.90
56240;DHT22;42154;51.992;5.896;2022-12-20T12:45:57;11.60;99.90
56240;DHT22;42154;51.992;5.896;2022-12-20T12:50:55;11.50;99.90
56240;DHT22;42154;51.992;5.896;2022-12-20T12:53:33;11.60;99.90
56240;DHT22;42154;51.992;5.896;2022-12-20T13:11:51;11.60;99.90
56240;DHT22;42154;51.992;5.896;2022-12-20T13:16:51;11.60;99.90
56240;DHT22;42154;51.992;5.896;2022-12-20T13:22:12;11.60;99.90
56240;DHT22;42154;51.992;5.896;2022-12-20T13:25:02;11.60;99.90
56240;DHT22;42154;51.992;5.896;2022-12-20T13:27:31;11.60;99.90
56240;DHT22;42154;51.992;5.896;2022-12-20T13:32:56;11.70;99.90
56240;DHT22;42154;51.992;5.896;2022-12-20T13:38:03;11.60;99.90
56240;DHT22;42154;51.992;5.896;2022-12-20T13:40:53;11.60;99.90
56240;DHT22;42154;51.992;5.896;2022-12-20T13:48:54;11.70;99.90
56240;DHT22;42154;51.992;5.896;2022-12-20T13:51:25;11.60;99.90
56240;DHT22;42154;51.992;5.896;2022-12-20T13:54:02;11.60;99.90
56240;DHT22;42154;51.992;5.896;2022-12-20T13:56:48;11.70;99.90
56240;DHT22;42154;51.992;5.896;2022-12-20T13:59:29;11.70;99.90
56240;DHT22;42154;51.992;5.896;2022-12-20T14:02:00;11.60;99.90
56240;DHT22;42154;51.992;5.896;2022-12-20T14:04:36;11.60;99.90
56240;DHT22;42154;51.992;5.896;2022-12-20T14:07:03;11.60;99.90
56240;DHT22;42154;51.992;5.896;2022-12-20T14:09:33;11.60;99.90
56240;DHT22;42154;51.992;5.896;2022-12-20T14:12:12;11.60;99.90
56240;DHT22;42154;51.992;5.896;2022-12-20T14:14:42;11.70;99.90
56240;DHT22;42154;51.992;5.896;2022-12-20T14:19:46;11.70;99.90
56240;DHT22;42154;51.992;5.896;2022-12-20T14:22:12;11.60;99.90
56240;DHT22;42154;51.992;5.896;2022-12-20T14:24:42;11.60;99.90
56240;DHT22;42154;51.992;5.896;2022-12-20T14:27:11;11.70;99.90
56240;DHT22;42154;51.992;5.896;2022-12-20T14:29:39;11.70;99.90
56240;DHT22;42154;51.992;5.896;2022-12-20T14:32:05;11.60;99.90
56240;DHT22;42154;51.992;5.896;2022-12-20T14:34:32;11.70;99.90
56240;DHT22;42154;51.992;5.896;2022-12-20T14:42:27;11.70;99.90
56240;DHT22;42154;51.992;5.896;2022-12-20T14:45:02;11.60;99.90
56240;DHT22;42154;51.992;5.896;2022-12-20T14:47:29;11.70;99.90
56240;DHT22;42154;51.992;5.896;2022-12-20T14:50:01;11.60;99.90
56240;DHT22;42154;51.992;5.896;2022-12-20T14:52:37;11.70;99.90
56240;DHT22;42154;51.992;5.896;2022-12-20T14:55:18;11.70;99.90
56240;DHT22;42154;51.992;5.896;2022-12-20T14:57:48;11.70;99.90
56240;DHT22;42154;51.992;5.896;2022-12-20T15:00:24;11.60;99.90
56240;DHT22;42154;51.992;5.896;2022-12-20T15:08:19;11.70;99.90
56240;DHT22;42154;51.992;5.896;2022-12-20T15:10:53;11.60;99.90
56240;DHT22;42154;51.992;5.896;2022-12-20T15:16:01;11.60;99.90
56240;DHT22;42154;51.992;5.896;2022-12-20T15:18:27;11.60;99.90
56240;DHT22;42154;51.992;5.896;2022-12-20T15:23:48;11.60;99.90
56240;DHT22;42154;51.992;5.896;2022-12-20T15:26:15;11.60;99.90
56240;DHT22;42154;51.992;5.896;2022-12-20T15:28:41;11.60;99.90
56240;DHT22;42154;51.992;5.896;2022-12-20T15:31:11;11.50;99.90
56240;DHT22;42154;51.992;5.896;2022-12-20T15:33:39;11.60;99.90
56240;DHT22;42154;51.992;5.896;2022-12-20T15:36:06;11.60;99.90
56240;DHT22;42154;51.992;5.896;2022-12-20T15:38:31;11.60;99.90
56240;DHT22;42154;51.992;5.896;2022-12-20T15:41:03;11.50;99.90
56240;DHT22;42154;51.992;5.896;2022-12-20T15:43:34;11.60;99.90
56240;DHT22;42154;51.992;5.896;2022-12-20T15:46:02;11.50;99.90
56240;DHT22;42154;51.992;5.896;2022-12-20T15:48:28;11.60;99.90
56240;DHT22;42154;51.992;5.896;2022-12-20T15:50:55;11.50;99.90
56240;DHT22;42154;51.992;5.896;2022-12-20T15:53:32;11.60;99.90
56240;DHT22;42154;51.992;5.896;2022-12-20T15:55:59;11.50;99.90
56240;DHT22;42154;51.992;5.896;2022-12-20T15:58:25;11.50;99.90
56240;DHT22;42154;51.992;5.896;2022-12-20T16:00:53;11.50;99.90
56240;DHT22;42154;51.992;5.896;2022-12-20T16:03:22;11.60;99.90
56240;DHT22;42154;51.992;5.896;2022-12-20T16:05:49;11.50;99.90
56240;DHT22;42154;51.992;5.896;2022-12-20T16:08:16;11.50;99.90
56240;DHT22;42154;51.992;5.896;2022-12-20T16:10:46;11.50;99.90
56240;DHT22;42154;51.992;5.896;2022-12-20T16:13:20;11.50;99.90
56240;DHT22;42154;51.992;5.896;2022-12-20T16:15:46;11.50;99.90
56240;DHT22;42154;51.992;5.896;2022-12-20T16:18:12;11.50;99.90
56240;DHT22;42154;51.992;5.896;2022-12-20T16:20:38;11.50;99.90
56240;DHT22;42154;51.992;5.896;2022-12-20T16:23:04;11.50;99.90
56240;DHT22;42154;51.992;5.896;2022-12-20T16:25:34;11.50;99.90
56240;DHT22;42154;51.992;5.896;2022-12-20T16:28:01;11.50;99.90
56240;DHT22;42154;51.992;5.896;2022-12-20T16:30:27;11.50;99.90
56240;DHT22;42154;51.992;5.896;2022-12-20T16:32:53;11.50;99.90
56240;DHT22;42154;51.992;5.896;2022-12-20T16:37:56;11.40;99.90
56240;DHT22;42154;51.992;5.896;2022-12-20T16:40:32;11.40;99.90
56240;DHT22;42154;51.992;5.896;2022-12-20T16:42:59;11.40;99.90
56240;DHT22;42154;51.992;5.896;2022-12-20T16:45:28;11.40;99.90
56240;DHT22;42154;51.992;5.896;2022-12-20T16:47:54;11.40;99.90
56240;DHT22;42154;51.992;5.896;2022-12-20T16:50:23;11.40;99.90
56240;DHT22;42154;51.992;5.896;2022-12-20T16:52:49;11.40;99.90
56240;DHT22;42154;51.992;5.896;2022-12-20T16:55:26;11.40;99.90
56240;DHT22;42154;51.992;5.896;2022-12-20T16:57:52;11.40;99.90
56240;DHT22;42154;51.992;5.896;2022-12-20T17:00:21;11.40;99.90
56240;DHT22;42154;51.992;5.896;2022-12-20T17:02:47;11.40;99.90
56240;DHT22;42154;51.992;5.896;2022-12-20T17:05:34;11.40;99.90
56240;DHT22;42154;51.992;5.896;2022-12-20T17:08:01;11.40;99.90
56240;DHT22;42154;51.992;5.896;2022-12-20T17:10:27;11.40;99.90
56240;DHT22;42154;51.992;5.896;2022-12-20T17:12:55;11.30;99.90
56240;DHT22;42154;51.992;5.896;2022-12-20T17:15:26;11.30;99.90
56240;DHT22;42154;51.992;5.896;2022-12-20T17:17:53;11.40;99.90
56240;DHT22;42154;51.992;5.896;2022-12-20T17:20:20;11.40;99.90
56240;DHT22;42154;51.992;5.896;2022-12-20T17:22:48;11.40;99.90
56240;DHT22;42154;51.992;5.896;2022-12-20T17:27:43;11.40;99.90
56240;DHT22;42154;51.992;5.896;2022-12-20T17:30:09;11.40;99.90
56240;DHT22;42154;51.992;5.896;2022-12-20T17:32:35;11.40;99.90
56240;DHT22;42154;51.992;5.896;2022-12-20T17:35:01;11.40;99.90
56240;DHT22;42154;51.992;5.896;2022-12-20T17:37:27;11.40;99.90
56240;DHT22;42154;51.992;5.896;2022-12-20T17:39:53;11.40;99.90
56240;DHT22;42154;51.992;5.896;2022-12-20T17:42:19;11.40;99.90
56240;DHT22;42154;51.992;5.896;2022-12-20T17:44:45;11.50;99.90
56240;DHT22;42154;51.992;5.896;2022-12-20T17:47:11;11.40;99.90
56240;DHT22;42154;51.992;5.896;2022-12-20T17:49:36;11.40;99.90
56240;DHT22;42154;51.992;5.896;2022-12-20T17:52:02;11.40;99.90
56240;DHT22;42154;51.992;5.896;2022-12-20T17:54:28;11.40;99.90
56240;DHT22;42154;51.992;5.896;2022-12-20T17:56:54;11.40;99.90
56240;DHT22;42154;51.992;5.896;2022-12-20T17:59:21;11.40;99.90
56240;DHT22;42154;51.992;5.896;2022-12-20T18:01:47;11.40;99.90
56240;DHT22;42154;51.992;5.896;2022-12-20T18:04:14;11.40;99.90
56240;DHT22;42154;51.992;5.896;2022-12-20T18:06:42;11.40;99.90
56240;DHT22;42154;51.992;5.896;2022-12-20T18:09:14;11.40;99.90
56240;DHT22;42154;51.992;5.896;2022-12-20T18:11:40;11.50;99.90